Time;durP1;ratioP1;P1;durP2;ratioP2;P2;SDS_P1;SDS_P2;PMS_P1;PMS_P2;Temp;Humidity;BMP_temperature;BMP_pressure;BME280_temperature;BME280_humidity;BME280_pressure;Samples;Min_cycle;Max_cycle;Signal;HPM_P1;HPM_P2
2023/07/29 00:01:36;;;;;;;13.68;9.15;;;;;;;;;;4974578;28;20411;-84
2023/07/29 00:04:05;;;;;;;11.52;9.02;;;;;;;;;;4988922;28;20608;-84
2023/07/29 00:06:31;;;;;;;15.82;9.63;;;;;;;;;;4971182;28;20133;-85
2023/07/29 00:08:57;;;;;;;12.43;10.35;;;;;;;;;;4969268;28;20494;-83
2023/07/29 00:11:23;;;;;;;13.77;10.23;;;;;;;;;;4967158;28;20042;-84
2023/07/29 00:13:50;;;;;;;15.02;10.20;;;;;;;;;;4987188;28;20069;-84
2023/07/29 00:16:17;;;;;;;12.77;10.38;;;;;;;;;;4983521;28;20133;-84
2023/07/29 00:18:43;;;;;;;12.25;9.93;;;;;;;;;;4970379;28;20081;-84
2023/07/29 00:21:09;;;;;;;14.10;10.05;;;;;;;;;;4950258;28;20545;-85
2023/07/29 00:23:35;;;;;;;15.48;10.80;;;;;;;;;;4969249;28;20082;-84
2023/07/29 00:26:01;;;;;;;13.68;10.13;;;;;;;;;;4969254;28;20088;-85
2023/07/29 00:28:27;;;;;;;11.32;9.85;;;;;;;;;;4983683;28;20054;-84
2023/07/29 00:30:53;;;;;;;11.82;10.35;;;;;;;;;;4949571;28;20088;-85
2023/07/29 00:33:20;;;;;;;12.77;10.43;;;;;;;;;;4985050;28;20145;-85
2023/07/29 00:35:46;;;;;;;14.60;10.90;;;;;;;;;;4967176;28;20378;-86
2023/07/29 00:38:12;;;;;;;15.57;11.20;;;;;;;;;;4965681;28;20361;-85
2023/07/29 00:40:38;;;;;;;16.90;11.30;;;;;;;;;;4965820;28;20061;-85
2023/07/29 00:43:07;;;;;;;14.77;11.13;;;;;;;;;;4951569;28;20457;-86
2023/07/29 00:45:36;;;;;;;14.43;11.00;;;;;;;;;;4969576;28;20482;-85
2023/07/29 00:48:03;;;;;;;16.35;11.63;;;;;;;;;;4967566;28;20135;-85
2023/07/29 00:50:30;;;;;;;13.32;11.07;;;;;;;;;;4949066;28;20326;-85
2023/07/29 00:52:57;;;;;;;15.32;11.45;;;;;;;;;;4987010;28;20046;-85
2023/07/29 00:55:23;;;;;;;15.85;11.18;;;;;;;;;;4980609;28;20494;-85
2023/07/29 00:57:54;;;;;;;14.00;11.43;;;;;;;;;;4952868;28;20046;-84
2023/07/29 01:00:20;;;;;;;15.18;11.73;;;;;;;;;;4968421;28;20062;-83
2023/07/29 01:02:46;;;;;;;15.32;11.80;;;;;;;;;;4968155;28;20350;-84
2023/07/29 01:05:13;;;;;;;13.35;11.25;;;;;;;;;;4970461;28;20061;-84
2023/07/29 01:07:51;;;;;;;13.68;11.38;;;;;;;;;;4968815;28;20053;-84
2023/07/29 01:10:30;;;;;;;14.48;11.50;;;;;;;;;;4966844;28;20034;-84
2023/07/29 01:13:06;;;;;;;13.15;11.45;;;;;;;;;;4973242;28;20112;-86
2023/07/29 01:15:35;;;;;;;14.55;10.65;;;;;;;;;;4968018;28;20066;-85
2023/07/29 01:18:05;;;;;;;15.88;11.95;;;;;;;;;;4967665;28;20148;-85
2023/07/29 01:20:34;;;;;;;14.63;11.50;;;;;;;;;;4951199;28;20403;-86
2023/07/29 01:23:00;;;;;;;15.93;12.27;;;;;;;;;;4964670;28;20061;-84
2023/07/29 01:25:26;;;;;;;14.98;11.68;;;;;;;;;;4970711;28;20046;-84
2023/07/29 01:27:52;;;;;;;15.48;11.40;;;;;;;;;;4968692;28;20049;-85
2023/07/29 01:30:20;;;;;;;15.55;11.23;;;;;;;;;;4965829;28;20045;-85
2023/07/29 01:32:52;;;;;;;15.20;11.77;;;;;;;;;;4982342;28;20565;-84
2023/07/29 01:35:22;;;;;;;15.15;11.43;;;;;;;;;;4965104;28;20061;-86
2023/07/29 01:37:49;;;;;;;14.75;11.60;;;;;;;;;;4965790;28;20041;-85
2023/07/29 01:40:16;;;;;;;15.20;11.85;;;;;;;;;;4968228;28;20497;-86
2023/07/29 01:42:43;;;;;;;14.85;11.35;;;;;;;;;;4969602;28;20465;-85
2023/07/29 01:45:09;;;;;;;14.13;11.30;;;;;;;;;;4950834;28;20143;-85
2023/07/29 01:47:35;;;;;;;15.07;11.63;;;;;;;;;;4985982;28;20077;-84
2023/07/29 01:50:01;;;;;;;16.17;12.18;;;;;;;;;;4966106;28;20287;-86
2023/07/29 01:52:27;;;;;;;14.55;11.65;;;;;;;;;;4948476;28;20120;-85
2023/07/29 01:54:53;;;;;;;16.48;11.27;;;;;;;;;;4969715;28;20058;-84
2023/07/29 01:57:19;;;;;;;14.25;10.93;;;;;;;;;;4950520;28;20051;-85
2023/07/29 01:59:45;;;;;;;13.93;11.50;;;;;;;;;;4950922;28;20096;-85
2023/07/29 02:02:11;;;;;;;16.23;11.82;;;;;;;;;;4966473;28;20050;-86
2023/07/29 02:04:37;;;;;;;15.13;11.10;;;;;;;;;;4967124;28;20134;-86
2023/07/29 02:07:03;;;;;;;14.25;11.13;;;;;;;;;;4984273;28;20062;-85
2023/07/29 02:09:30;;;;;;;14.68;11.05;;;;;;;;;;4966259;28;20121;-84
2023/07/29 02:11:57;;;;;;;14.32;10.50;;;;;;;;;;4956983;28;20142;-85
2023/07/29 02:14:23;;;;;;;17.25;11.60;;;;;;;;;;4966821;28;20133;-86
2023/07/29 02:16:49;;;;;;;14.35;10.65;;;;;;;;;;4966287;28;20487;-84
2023/07/29 02:19:16;;;;;;;13.57;10.88;;;;;;;;;;4967527;28;20553;-84
2023/07/29 02:21:42;;;;;;;11.95;10.13;;;;;;;;;;4973804;28;20073;-84
2023/07/29 02:24:08;;;;;;;14.45;10.43;;;;;;;;;;4967849;28;20493;-85
2023/07/29 02:26:34;;;;;;;11.82;9.68;;;;;;;;;;4966553;28;20045;-84
2023/07/29 02:29:00;;;;;;;13.07;9.25;;;;;;;;;;4951513;28;20132;-83
2023/07/29 02:31:26;;;;;;;11.85;8.85;;;;;;;;;;4969126;28;20384;-85
2023/07/29 02:33:55;;;;;;;11.77;9.07;;;;;;;;;;4987359;28;20506;-85
2023/07/29 02:36:21;;;;;;;11.65;8.95;;;;;;;;;;4968332;28;20050;-84
2023/07/29 02:38:47;;;;;;;10.60;8.13;;;;;;;;;;4969243;28;20027;-85
2023/07/29 02:41:15;;;;;;;11.82;8.82;;;;;;;;;;4978610;28;20058;-84
2023/07/29 02:43:42;;;;;;;10.25;8.30;;;;;;;;;;4967279;28;20104;-85
2023/07/29 02:46:08;;;;;;;11.10;8.35;;;;;;;;;;4985439;28;20053;-85
2023/07/29 02:48:40;;;;;;;13.35;8.43;;;;;;;;;;4985049;28;20129;-85
2023/07/29 02:51:06;;;;;;;10.20;8.63;;;;;;;;;;4964438;28;20489;-85
2023/07/29 02:53:33;;;;;;;11.52;8.32;;;;;;;;;;4966644;28;20102;-85
2023/07/29 02:55:59;;;;;;;10.23;8.13;;;;;;;;;;4975866;28;20057;-85
2023/07/29 02:58:26;;;;;;;12.10;8.40;;;;;;;;;;4967202;28;20125;-85
2023/07/29 03:00:52;;;;;;;11.73;8.73;;;;;;;;;;4982496;28;20100;-84
2023/07/29 03:03:19;;;;;;;13.00;8.88;;;;;;;;;;4967127;28;20589;-86
2023/07/29 03:05:45;;;;;;;12.23;8.88;;;;;;;;;;4965938;28;20514;-85
2023/07/29 03:08:13;;;;;;;11.63;9.05;;;;;;;;;;4949322;28;20053;-85
2023/07/29 03:10:39;;;;;;;13.02;8.55;;;;;;;;;;4950110;28;20475;-84
2023/07/29 03:13:05;;;;;;;11.45;8.45;;;;;;;;;;4965462;28;20050;-85
2023/07/29 03:15:31;;;;;;;12.18;9.07;;;;;;;;;;4961608;28;20074;-85
2023/07/29 03:17:57;;;;;;;11.23;8.55;;;;;;;;;;4967744;28;20088;-86
2023/07/29 03:20:23;;;;;;;12.90;9.32;;;;;;;;;;4968380;28;22006;-85
2023/07/29 03:22:49;;;;;;;13.90;9.45;;;;;;;;;;4951456;28;20053;-85
2023/07/29 03:25:15;;;;;;;10.85;8.30;;;;;;;;;;4967729;28;20500;-85
2023/07/29 03:27:41;;;;;;;18.10;9.43;;;;;;;;;;4965347;28;20046;-84
2023/07/29 03:30:07;;;;;;;14.00;9.02;;;;;;;;;;4964220;28;20061;-85
2023/07/29 03:32:33;;;;;;;12.48;8.63;;;;;;;;;;4967876;28;20053;-84
2023/07/29 03:34:59;;;;;;;10.05;8.30;;;;;;;;;;4951240;28;20172;-84
2023/07/29 03:37:25;;;;;;;14.82;9.45;;;;;;;;;;4951206;28;20084;-84
2023/07/29 03:39:54;;;;;;;10.68;8.90;;;;;;;;;;4985130;28;20062;-84
2023/07/29 03:42:20;;;;;;;10.80;7.78;;;;;;;;;;4964065;28;20050;-85
2023/07/29 03:44:46;;;;;;;14.35;8.55;;;;;;;;;;4953871;28;20038;-85
2023/07/29 03:47:12;;;;;;;11.75;8.32;;;;;;;;;;4966609;28;20042;-84
2023/07/29 03:49:38;;;;;;;12.75;8.65;;;;;;;;;;4951572;28;20696;-83
2023/07/29 03:52:05;;;;;;;13.50;8.60;;;;;;;;;;4965013;28;20050;-85
2023/07/29 03:54:31;;;;;;;13.68;8.75;;;;;;;;;;4965875;28;20100;-85
2023/07/29 03:57:00;;;;;;;15.07;8.25;;;;;;;;;;4945089;28;20046;-84
2023/07/29 03:59:29;;;;;;;11.82;8.13;;;;;;;;;;4965424;28;20472;-85
2023/07/29 04:01:55;;;;;;;13.63;8.40;;;;;;;;;;4947533;28;20045;-85
2023/07/29 04:04:21;;;;;;;13.27;8.85;;;;;;;;;;4946393;28;20048;-85
2023/07/29 04:06:47;;;;;;;10.10;8.38;;;;;;;;;;4965475;28;20046;-85
2023/07/29 04:09:16;;;;;;;10.02;7.60;;;;;;;;;;4967062;28;20061;-84
2023/07/29 04:11:42;;;;;;;10.77;7.40;;;;;;;;;;4965407;28;20074;-84
2023/07/29 04:14:11;;;;;;;12.63;7.82;;;;;;;;;;4972679;28;20124;-83
2023/07/29 04:16:37;;;;;;;11.65;7.82;;;;;;;;;;4983123;28;20133;-85
2023/07/29 04:19:03;;;;;;;10.45;7.03;;;;;;;;;;4967947;28;20132;-84
2023/07/29 04:21:29;;;;;;;10.73;7.28;;;;;;;;;;4953793;28;20089;-84
2023/07/29 04:23:55;;;;;;;13.02;7.40;;;;;;;;;;4970310;28;20858;-85
2023/07/29 04:26:21;;;;;;;10.90;6.90;;;;;;;;;;4974162;28;20048;-85
2023/07/29 04:28:47;;;;;;;9.13;7.20;;;;;;;;;;4955686;28;20337;-85
2023/07/29 04:31:13;;;;;;;8.88;7.32;;;;;;;;;;4968229;28;20057;-85
2023/07/29 04:33:39;;;;;;;12.65;7.07;;;;;;;;;;4968266;28;20164;-85
2023/07/29 04:36:05;;;;;;;9.07;6.75;;;;;;;;;;4966572;28;20581;-86
2023/07/29 04:38:32;;;;;;;11.45;6.60;;;;;;;;;;4951337;28;20038;-85
2023/07/29 04:41:01;;;;;;;13.15;7.05;;;;;;;;;;4953212;28;20144;-85
2023/07/29 04:43:33;;;;;;;8.43;6.50;;;;;;;;;;4969944;28;20104;-85
2023/07/29 04:45:59;;;;;;;7.95;5.97;;;;;;;;;;4967369;28;20398;-84
2023/07/29 04:48:25;;;;;;;9.30;6.20;;;;;;;;;;4984500;28;20137;-86
2023/07/29 04:50:51;;;;;;;10.60;5.90;;;;;;;;;;4950582;28;20068;-86
2023/07/29 04:53:17;;;;;;;8.10;5.57;;;;;;;;;;4968335;28;20043;-84
2023/07/29 04:55:44;;;;;;;8.85;5.75;;;;;;;;;;4967978;28;20065;-86
2023/07/29 04:58:10;;;;;;;8.60;6.00;;;;;;;;;;4970564;28;20050;-85
2023/07/29 05:00:36;;;;;;;8.60;6.00;;;;;;;;;;4952407;28;20061;-86
2023/07/29 05:03:02;;;;;;;9.35;5.47;;;;;;;;;;4964811;28;20050;-85
2023/07/29 05:05:28;;;;;;;9.15;5.07;;;;;;;;;;4969712;28;20047;-86
2023/07/29 05:07:54;;;;;;;8.40;4.85;;;;;;;;;;4971201;28;20107;-86
2023/07/29 05:10:20;;;;;;;11.20;5.25;;;;;;;;;;4969975;28;20050;-85
2023/07/29 05:12:46;;;;;;;6.38;4.55;;;;;;;;;;4966599;28;20643;-85
2023/07/29 05:15:12;;;;;;;8.10;4.90;;;;;;;;;;4964569;28;20220;-85
2023/07/29 05:17:38;;;;;;;10.23;4.80;;;;;;;;;;4967793;28;20034;-84
2023/07/29 05:20:05;;;;;;;5.43;4.68;;;;;;;;;;4970111;28;20046;-84
2023/07/29 05:22:31;;;;;;;7.30;4.30;;;;;;;;;;4969406;28;20050;-85
2023/07/29 05:24:57;;;;;;;7.05;4.50;;;;;;;;;;4968853;28;20042;-85
2023/07/29 05:27:23;;;;;;;5.22;4.13;;;;;;;;;;4967902;28;20042;-85
2023/07/29 05:29:49;;;;;;;9.07;4.22;;;;;;;;;;4969482;28;20525;-84
2023/07/29 05:32:15;;;;;;;5.93;4.00;;;;;;;;;;4969535;28;20034;-86
2023/07/29 05:34:41;;;;;;;6.15;3.90;;;;;;;;;;4954710;28;20061;-85
2023/07/29 05:37:07;;;;;;;9.63;4.63;;;;;;;;;;4971274;28;20056;-84
2023/07/29 05:39:33;;;;;;;6.90;3.78;;;;;;;;;;4951739;28;20166;-85
2023/07/29 05:42:02;;;;;;;5.68;3.83;;;;;;;;;;4964312;28;20491;-86
2023/07/29 05:44:29;;;;;;;6.00;3.75;;;;;;;;;;4952910;28;20137;-85
2023/07/29 05:46:55;;;;;;;7.93;4.10;;;;;;;;;;4968720;28;20058;-85
2023/07/29 05:49:21;;;;;;;5.50;3.70;;;;;;;;;;4969141;28;20052;-84
2023/07/29 05:51:52;;;;;;;5.57;3.50;;;;;;;;;;4968264;28;20053;-86
2023/07/29 05:54:19;;;;;;;7.28;3.60;;;;;;;;;;4968434;28;20097;-85
2023/07/29 05:56:45;;;;;;;5.28;3.60;;;;;;;;;;4970573;28;20506;-84
2023/07/29 05:59:11;;;;;;;4.60;3.30;;;;;;;;;;4984606;28;20652;-84
2023/07/29 06:01:37;;;;;;;5.75;3.65;;;;;;;;;;4947987;28;20050;-84
2023/07/29 06:04:05;;;;;;;9.10;3.50;;;;;;;;;;4970671;28;20077;-84
2023/07/29 06:06:31;;;;;;;7.50;4.35;;;;;;;;;;4949170;28;20406;-85
2023/07/29 06:08:58;;;;;;;4.28;2.92;;;;;;;;;;4949433;28;20038;-85
2023/07/29 06:11:24;;;;;;;6.75;3.40;;;;;;;;;;4978444;28;20038;-84
2023/07/29 06:13:50;;;;;;;5.43;3.10;;;;;;;;;;4987137;28;20057;-85
2023/07/29 06:16:16;;;;;;;5.38;2.92;;;;;;;;;;4968400;28;20054;-85
2023/07/29 06:18:42;;;;;;;5.63;2.83;;;;;;;;;;4969284;28;20418;-85
2023/07/29 06:21:11;;;;;;;8.07;3.50;;;;;;;;;;4968182;28;20034;-84
2023/07/29 06:23:37;;;;;;;6.40;3.20;;;;;;;;;;4968332;28;20049;-84
2023/07/29 06:26:03;;;;;;;4.80;3.15;;;;;;;;;;4968082;28;20142;-84
2023/07/29 06:28:29;;;;;;;6.07;3.13;;;;;;;;;;4952558;28;20387;-83
2023/07/29 06:30:55;;;;;;;6.38;3.30;;;;;;;;;;4967225;28;20050;-84
2023/07/29 06:33:21;;;;;;;7.63;3.60;;;;;;;;;;4947800;28;20038;-84
2023/07/29 06:35:47;;;;;;;6.70;3.40;;;;;;;;;;4963930;28;20088;-83
2023/07/29 06:38:13;;;;;;;7.53;3.30;;;;;;;;;;4984599;28;20486;-85
2023/07/29 06:40:39;;;;;;;6.90;3.55;;;;;;;;;;4969660;28;20679;-85
2023/07/29 06:43:06;;;;;;;9.27;3.72;;;;;;;;;;4967937;28;20046;-84
2023/07/29 06:45:32;;;;;;;6.20;3.65;;;;;;;;;;4951631;28;20065;-84
2023/07/29 06:47:58;;;;;;;6.10;3.65;;;;;;;;;;4948659;28;20053;-84
2023/07/29 06:50:24;;;;;;;5.90;3.40;;;;;;;;;;4965459;28;20045;-83
2023/07/29 06:52:49;;;;;;;7.13;4.00;;;;;;;;;;4966092;28;20454;-84
2023/07/29 06:55:16;;;;;;;6.60;3.72;;;;;;;;;;4969437;28;20549;-85
2023/07/29 06:57:42;;;;;;;9.48;3.90;;;;;;;;;;4965637;28;20047;-84
2023/07/29 07:00:09;;;;;;;7.82;4.00;;;;;;;;;;4963423;28;20031;-85
2023/07/29 07:02:35;;;;;;;6.45;3.30;;;;;;;;;;4968619;28;20054;-84
2023/07/29 07:05:01;;;;;;;11.85;3.53;;;;;;;;;;4952728;28;20050;-84
2023/07/29 07:07:27;;;;;;;8.30;3.75;;;;;;;;;;4984463;28;20326;-85
2023/07/29 07:09:53;;;;;;;8.00;3.90;;;;;;;;;;4983380;28;20219;-86
2023/07/29 07:12:25;;;;;;;9.48;3.83;;;;;;;;;;4949362;28;20104;-85
2023/07/29 07:14:51;;;;;;;9.43;3.80;;;;;;;;;;4982601;28;20591;-88
2023/07/29 07:17:18;;;;;;;9.48;4.32;;;;;;;;;;4981814;28;20145;-86
2023/07/29 07:19:44;;;;;;;9.35;3.92;;;;;;;;;;4950739;28;20391;-88
2023/07/29 07:22:13;;;;;;;6.75;4.10;;;;;;;;;;4964487;28;20055;-87
2023/07/29 07:24:42;;;;;;;9.80;4.70;;;;;;;;;;4948759;28;20506;-89
2023/07/29 07:27:08;;;;;;;9.07;4.32;;;;;;;;;;4965497;28;20046;-88
2023/07/29 07:29:34;;;;;;;8.43;4.65;;;;;;;;;;4985262;28;20045;-89
2023/07/29 07:32:00;;;;;;;7.78;4.32;;;;;;;;;;4966106;28;20491;-89
2023/07/29 07:34:26;;;;;;;11.30;4.50;;;;;;;;;;4963542;28;20053;-88
2023/07/29 07:36:52;;;;;;;8.40;4.28;;;;;;;;;;4966975;28;20054;-90
2023/07/29 07:39:18;;;;;;;8.55;4.90;;;;;;;;;;4951735;28;20038;-89
2023/07/29 07:41:47;;;;;;;12.02;5.20;;;;;;;;;;4966395;28;20517;-89
2023/07/29 07:44:15;;;;;;;9.05;5.35;;;;;;;;;;4950307;28;20104;-88
2023/07/29 07:46:42;;;;;;;8.95;4.78;;;;;;;;;;4969319;28;20046;-88
2023/07/29 07:49:08;;;;;;;8.57;5.55;;;;;;;;;;4965577;28;20125;-89
2023/07/29 07:51:34;;;;;;;9.85;5.75;;;;;;;;;;4968102;28;20142;-90
2023/07/29 07:54:00;;;;;;;10.30;5.60;;;;;;;;;;4970204;28;20492;-90
2023/07/29 07:56:26;;;;;;;6.65;4.97;;;;;;;;;;4964009;28;20414;-87
2023/07/29 07:58:52;;;;;;;8.68;5.07;;;;;;;;;;4967436;28;20046;-89
2023/07/29 08:01:19;;;;;;;11.48;5.20;;;;;;;;;;4949860;28;20046;-89
2023/07/29 08:03:45;;;;;;;10.43;4.88;;;;;;;;;;4965293;28;20045;-89
2023/07/29 08:06:14;;;;;;;9.07;4.68;;;;;;;;;;4948392;28;20050;-89
2023/07/29 08:08:40;;;;;;;13.00;5.07;;;;;;;;;;4951940;28;20053;-89
2023/07/29 08:11:06;;;;;;;8.65;5.03;;;;;;;;;;4968144;28;20050;-89
2023/07/29 08:13:32;;;;;;;8.68;4.93;;;;;;;;;;4962353;28;20112;-88
2023/07/29 08:15:58;;;;;;;9.45;4.70;;;;;;;;;;4964411;28;20042;-88
2023/07/29 08:18:24;;;;;;;9.88;5.15;;;;;;;;;;4966038;28;20080;-88
2023/07/29 08:21:03;;;;;;;9.07;4.80;;;;;;;;;;4966247;28;20157;-90
2023/07/29 08:23:33;;;;;;;9.02;4.40;;;;;;;;;;4967245;28;20058;-89
2023/07/29 08:26:01;;;;;;;9.85;4.57;;;;;;;;;;4966947;28;20483;-89
2023/07/29 08:28:37;;;;;;;9.23;3.75;;;;;;;;;;4963812;28;20054;-88
2023/07/29 08:31:03;;;;;;;8.38;3.70;;;;;;;;;;4968131;28;20450;-88
2023/07/29 08:33:30;;;;;;;5.88;3.60;;;;;;;;;;4949821;28;20245;-88
2023/07/29 08:35:56;;;;;;;8.52;3.42;;;;;;;;;;4967428;28;20129;-88
2023/07/29 08:38:22;;;;;;;8.93;3.50;;;;;;;;;;4950091;28;21730;-88
2023/07/29 08:41:03;;;;;;;8.93;3.60;;;;;;;;;;4982979;28;20501;-88
2023/07/29 08:43:30;;;;;;;6.90;3.30;;;;;;;;;;4964098;28;20092;-87
2023/07/29 08:45:57;;;;;;;7.45;3.88;;;;;;;;;;4964506;28;20070;-87
2023/07/29 08:48:30;;;;;;;6.97;2.95;;;;;;;;;;4942072;28;20546;-89
2023/07/29 08:50:56;;;;;;;5.65;2.75;;;;;;;;;;4946486;28;20050;-89
2023/07/29 08:53:22;;;;;;;5.97;2.80;;;;;;;;;;4962046;28;20061;-88
2023/07/29 08:55:49;;;;;;;7.25;2.95;;;;;;;;;;4980193;28;20132;-87
2023/07/29 08:58:16;;;;;;;3.95;2.83;;;;;;;;;;4965739;28;20522;-89
2023/07/29 09:00:44;;;;;;;6.03;3.28;;;;;;;;;;4971414;28;20069;-87
2023/07/29 09:03:11;;;;;;;5.50;2.47;;;;;;;;;;4956619;28;20196;-88
2023/07/29 09:05:37;;;;;;;6.07;2.70;;;;;;;;;;4963441;28;20070;-86
2023/07/29 09:08:13;;;;;;;5.30;2.63;;;;;;;;;;4973509;28;20046;-89
2023/07/29 09:10:39;;;;;;;8.57;2.33;;;;;;;;;;4976733;28;20114;-88
2023/07/29 09:13:08;;;;;;;5.05;2.63;;;;;;;;;;4949990;28;20422;-90
2023/07/29 09:15:35;;;;;;;7.20;2.65;;;;;;;;;;4968141;28;20046;-90
2023/07/29 09:18:20;;;;;;;6.30;2.38;;;;;;;;;;4963587;28;20060;-87
2023/07/29 09:20:47;;;;;;;8.57;2.47;;;;;;;;;;4975687;28;20125;-89
2023/07/29 09:23:14;;;;;;;4.85;2.53;;;;;;;;;;4948647;28;20078;-89
2023/07/29 09:25:40;;;;;;;6.03;2.35;;;;;;;;;;4978899;28;20490;-87
2023/07/29 09:28:13;;;;;;;5.05;2.28;;;;;;;;;;4967772;28;20143;-87
2023/07/29 09:30:42;;;;;;;4.60;1.95;;;;;;;;;;4946167;28;20141;-88
2023/07/29 09:33:15;;;;;;;6.15;2.30;;;;;;;;;;4946277;28;20244;-88
2023/07/29 09:35:42;;;;;;;6.55;2.45;;;;;;;;;;4978468;28;20050;-88
2023/07/29 09:38:08;;;;;;;9.63;2.72;;;;;;;;;;4946227;28;20042;-90
2023/07/29 09:40:38;;;;;;;4.47;2.05;;;;;;;;;;4946196;28;20357;-89
2023/07/29 09:43:05;;;;;;;4.53;2.10;;;;;;;;;;4959143;28;20054;-88
2023/07/29 09:45:33;;;;;;;5.32;2.17;;;;;;;;;;4969664;28;20046;-89
2023/07/29 09:47:59;;;;;;;10.65;2.35;;;;;;;;;;4960969;28;20046;-87
2023/07/29 09:50:26;;;;;;;5.55;2.30;;;;;;;;;;4943051;28;20050;-88
2023/07/29 09:52:53;;;;;;;4.35;1.92;;;;;;;;;;4948287;28;20069;-88
2023/07/29 09:55:19;;;;;;;4.85;2.10;;;;;;;;;;4945805;28;20042;-87
2023/07/29 09:57:46;;;;;;;5.00;1.90;;;;;;;;;;4946993;28;20101;-88
2023/07/29 10:00:13;;;;;;;5.30;1.70;;;;;;;;;;4955726;28;20481;-88
2023/07/29 10:02:43;;;;;;;5.25;1.88;;;;;;;;;;4976309;28;20057;-87
2023/07/29 10:05:12;;;;;;;3.90;1.60;;;;;;;;;;4959823;28;20165;-88
2023/07/29 10:07:39;;;;;;;4.25;1.80;;;;;;;;;;4960887;28;20131;-89
2023/07/29 10:10:06;;;;;;;7.90;1.92;;;;;;;;;;4943811;28;20050;-88
2023/07/29 10:12:32;;;;;;;5.45;2.10;;;;;;;;;;4973032;28;20062;-89
2023/07/29 10:15:06;;;;;;;7.32;1.85;;;;;;;;;;4957309;28;20112;-88
2023/07/29 10:17:37;;;;;;;5.72;2.05;;;;;;;;;;4941270;28;20624;-88
2023/07/29 10:20:07;;;;;;;3.30;1.90;;;;;;;;;;4974713;28;20117;-87
2023/07/29 10:22:39;;;;;;;5.10;1.67;;;;;;;;;;4975262;28;20304;-87
2023/07/29 10:25:07;;;;;;;7.82;1.80;;;;;;;;;;4958382;28;20050;-88
2023/07/29 10:27:41;;;;;;;5.22;2.00;;;;;;;;;;4940518;28;20050;-88
2023/07/29 10:30:08;;;;;;;4.60;1.90;;;;;;;;;;4973436;28;20097;-88
2023/07/29 10:32:35;;;;;;;6.30;2.20;;;;;;;;;;4940759;28;20062;-86
2023/07/29 10:35:01;;;;;;;5.55;2.35;;;;;;;;;;4960860;28;20168;-87
2023/07/29 10:37:27;;;;;;;6.00;1.83;;;;;;;;;;4941313;28;20046;-88
2023/07/29 10:39:54;;;;;;;5.05;2.00;;;;;;;;;;4958486;28;20089;-88
2023/07/29 10:42:21;;;;;;;5.22;1.88;;;;;;;;;;4964176;28;20038;-88
2023/07/29 10:44:51;;;;;;;4.55;2.10;;;;;;;;;;4956462;28;20050;-88
2023/07/29 10:47:18;;;;;;;5.80;1.70;;;;;;;;;;4959095;28;20053;-88
2023/07/29 10:49:45;;;;;;;5.38;1.80;;;;;;;;;;4960383;28;20042;-88
2023/07/29 10:52:28;;;;;;;3.88;1.40;;;;;;;;;;4943629;28;20078;-87
2023/07/29 10:54:54;;;;;;;7.25;1.50;;;;;;;;;;4942539;28;20054;-87
2023/07/29 10:57:41;;;;;;;3.60;1.45;;;;;;;;;;4940861;28;20104;-87
2023/07/29 11:00:08;;;;;;;5.68;1.10;;;;;;;;;;4959695;28;20061;-89
2023/07/29 11:02:38;;;;;;;3.88;1.17;;;;;;;;;;4947028;28;20054;-89
2023/07/29 11:05:08;;;;;;;5.82;1.77;;;;;;;;;;4964078;28;20514;-88
2023/07/29 11:07:47;;;;;;;6.70;1.70;;;;;;;;;;4959689;28;20136;-89
2023/07/29 11:10:14;;;;;;;7.18;1.60;;;;;;;;;;4958218;28;20050;-87
2023/07/29 11:12:54;;;;;;;5.13;1.50;;;;;;;;;;4941607;28;20348;-89
2023/07/29 11:15:21;;;;;;;4.47;1.48;;;;;;;;;;4975704;28;20061;-90
2023/07/29 11:17:47;;;;;;;8.32;1.60;;;;;;;;;;4962544;28;20129;-87
2023/07/29 11:20:14;;;;;;;1.75;1.08;;;;;;;;;;4945456;28;20481;-87
2023/07/29 11:22:41;;;;;;;3.95;1.10;;;;;;;;;;4959764;28;20421;-86
2023/07/29 11:25:11;;;;;;;2.40;0.93;;;;;;;;;;4974132;28;20057;-88
2023/07/29 11:27:37;;;;;;;2.72;1.00;;;;;;;;;;4968878;28;20103;-88
2023/07/29 11:30:10;;;;;;;2.08;1.00;;;;;;;;;;4969454;28;20469;-88
2023/07/29 11:32:37;;;;;;;1.38;0.82;;;;;;;;;;4965534;28;20046;-88
2023/07/29 11:35:07;;;;;;;1.83;0.80;;;;;;;;;;4946164;28;20213;-89
2023/07/29 11:37:34;;;;;;;5.43;1.00;;;;;;;;;;4967169;28;20046;-89
2023/07/29 11:40:04;;;;;;;2.97;1.08;;;;;;;;;;4967018;28;20109;-90
2023/07/29 11:42:32;;;;;;;4.53;1.00;;;;;;;;;;4972578;28;20089;-89
2023/07/29 11:44:58;;;;;;;4.00;1.20;;;;;;;;;;4968664;28;20046;-88
2023/07/29 11:47:24;;;;;;;6.13;1.40;;;;;;;;;;4977790;28;20061;-88
2023/07/29 11:49:50;;;;;;;5.03;1.20;;;;;;;;;;4954402;28;20038;-87
2023/07/29 11:52:19;;;;;;;2.13;1.10;;;;;;;;;;4976524;28;20046;-87
2023/07/29 11:54:49;;;;;;;4.45;1.27;;;;;;;;;;4952722;28;20524;-89
2023/07/29 11:57:16;;;;;;;2.97;1.30;;;;;;;;;;4967488;28;20034;-87
2023/07/29 11:59:42;;;;;;;3.30;1.30;;;;;;;;;;4969651;28;20550;-87
2023/07/29 12:02:11;;;;;;;4.45;1.60;;;;;;;;;;4949430;28;20367;-88
2023/07/29 12:04:38;;;;;;;3.28;1.50;;;;;;;;;;4956647;28;20510;-89
2023/07/29 12:07:04;;;;;;;3.28;1.50;;;;;;;;;;4977186;28;20042;-87
2023/07/29 12:09:31;;;;;;;6.90;1.60;;;;;;;;;;4973535;28;21252;-88
2023/07/29 12:11:57;;;;;;;6.50;1.65;;;;;;;;;;4968292;28;20596;-88
2023/07/29 12:14:26;;;;;;;5.80;1.85;;;;;;;;;;4972685;28;20077;-88
2023/07/29 12:16:53;;;;;;;5.07;2.00;;;;;;;;;;4983333;28;20365;-88
2023/07/29 12:19:22;;;;;;;7.87;2.20;;;;;;;;;;4967247;28;20046;-89
2023/07/29 12:21:49;;;;;;;8.23;2.03;;;;;;;;;;4980253;28;21247;-86
2023/07/29 12:24:15;;;;;;;4.35;2.00;;;;;;;;;;4947414;28;20052;-89
2023/07/29 12:26:42;;;;;;;5.53;1.80;;;;;;;;;;4945745;28;20155;-88
2023/07/29 12:29:21;;;;;;;5.32;2.05;;;;;;;;;;4982081;28;20319;-87
2023/07/29 12:31:47;;;;;;;4.50;2.00;;;;;;;;;;4953241;28;20445;-87
2023/07/29 12:34:20;;;;;;;7.50;2.72;;;;;;;;;;4954041;28;20034;-88
2023/07/29 12:36:47;;;;;;;7.82;2.30;;;;;;;;;;4965620;28;20082;-88
2023/07/29 12:39:20;;;;;;;5.35;2.33;;;;;;;;;;4948456;28;20049;-90
2023/07/29 12:41:47;;;;;;;4.32;2.10;;;;;;;;;;4950129;28;20044;-87
2023/07/29 12:44:13;;;;;;;3.40;2.10;;;;;;;;;;4963713;28;20050;-87
2023/07/29 12:46:42;;;;;;;9.52;2.30;;;;;;;;;;4982174;28;20050;-88
2023/07/29 12:49:09;;;;;;;6.85;2.05;;;;;;;;;;4965590;28;20045;-88
2023/07/29 12:51:36;;;;;;;4.97;2.00;;;;;;;;;;4947100;28;20509;-87
2023/07/29 12:54:03;;;;;;;4.18;2.08;;;;;;;;;;4965108;28;20080;-88
2023/07/29 12:56:32;;;;;;;4.68;2.28;;;;;;;;;;4961583;28;20076;-87
2023/07/29 12:59:01;;;;;;;6.00;2.17;;;;;;;;;;4946202;28;20062;-87
2023/07/29 13:01:28;;;;;;;6.55;2.42;;;;;;;;;;4966295;28;20038;-87
2023/07/29 13:03:54;;;;;;;4.15;2.30;;;;;;;;;;4963231;28;20760;-88
2023/07/29 13:06:21;;;;;;;6.15;1.80;;;;;;;;;;4947405;28;20082;-88
2023/07/29 13:08:47;;;;;;;4.35;1.88;;;;;;;;;;4977991;28;20133;-87
2023/07/29 13:11:13;;;;;;;3.72;1.90;;;;;;;;;;4948637;28;20108;-88
2023/07/29 13:13:40;;;;;;;6.90;2.28;;;;;;;;;;4965102;28;20050;-88
2023/07/29 13:16:06;;;;;;;4.35;1.95;;;;;;;;;;4946427;28;20654;-87
2023/07/29 13:18:32;;;;;;;5.00;1.75;;;;;;;;;;4960927;28;20042;-87
2023/07/29 13:20:59;;;;;;;7.38;2.10;;;;;;;;;;4961573;28;20130;-88
2023/07/29 13:23:26;;;;;;;4.53;1.85;;;;;;;;;;4961976;28;20180;-87
2023/07/29 13:25:55;;;;;;;5.40;1.60;;;;;;;;;;4962617;28;20046;-87
2023/07/29 13:28:21;;;;;;;4.07;1.42;;;;;;;;;;4963981;28;20512;-87
2023/07/29 13:30:47;;;;;;;3.28;1.33;;;;;;;;;;4961767;28;20038;-86
2023/07/29 13:33:13;;;;;;;2.60;1.17;;;;;;;;;;4950231;28;20039;-88
2023/07/29 13:35:39;;;;;;;3.42;1.23;;;;;;;;;;4945987;28;20046;-87
2023/07/29 13:38:05;;;;;;;3.05;1.23;;;;;;;;;;4953931;28;20164;-88
2023/07/29 13:40:35;;;;;;;3.95;1.27;;;;;;;;;;4943765;28;20046;-87
2023/07/29 13:43:01;;;;;;;2.33;1.30;;;;;;;;;;4957287;28;20695;-88
2023/07/29 13:45:30;;;;;;;2.75;1.25;;;;;;;;;;4950659;28;20129;-89
2023/07/29 13:48:05;;;;;;;3.50;1.50;;;;;;;;;;4948006;28;20575;-88
2023/07/29 13:50:31;;;;;;;3.72;1.42;;;;;;;;;;4967354;28;20081;-88
2023/07/29 13:52:57;;;;;;;2.72;1.02;;;;;;;;;;4972800;28;20413;-86
2023/07/29 13:55:23;;;;;;;5.82;1.33;;;;;;;;;;4948458;28;20038;-87
2023/07/29 13:57:49;;;;;;;2.47;1.17;;;;;;;;;;4976594;28;20050;-88
2023/07/29 14:00:16;;;;;;;3.03;0.80;;;;;;;;;;4949787;28;20046;-90
2023/07/29 14:02:43;;;;;;;2.20;1.10;;;;;;;;;;4973642;28;20042;-87
2023/07/29 14:05:11;;;;;;;1.43;0.90;;;;;;;;;;4950068;28;20121;-87
2023/07/29 14:07:37;;;;;;;2.88;0.90;;;;;;;;;;4949429;28;20050;-88
2023/07/29 14:10:04;;;;;;;12.30;0.82;;;;;;;;;;4961701;28;20082;-87
2023/07/29 14:12:30;;;;;;;2.55;0.65;;;;;;;;;;4978635;28;20063;-88
2023/07/29 14:15:06;;;;;;;1.27;0.70;;;;;;;;;;4967738;28;20046;-87
2023/07/29 14:17:32;;;;;;;4.22;1.05;;;;;;;;;;4967264;28;20510;-88
2023/07/29 14:19:58;;;;;;;2.55;0.73;;;;;;;;;;4951637;28;21371;-87
2023/07/29 14:22:27;;;;;;;3.10;0.70;;;;;;;;;;4976050;28;20046;-88
2023/07/29 14:24:53;;;;;;;1.73;0.68;;;;;;;;;;4981279;28;20053;-87
2023/07/29 14:27:19;;;;;;;2.78;0.80;;;;;;;;;;4945546;28;20050;-89
2023/07/29 14:29:45;;;;;;;2.08;0.90;;;;;;;;;;4958763;28;20053;-88
2023/07/29 14:32:11;;;;;;;2.47;0.80;;;;;;;;;;4968439;28;20064;-88
2023/07/29 14:34:40;;;;;;;2.65;0.90;;;;;;;;;;4966330;28;20404;-88
2023/07/29 14:37:06;;;;;;;3.55;0.98;;;;;;;;;;4951603;28;20430;-89